BKBT2: Red River, Burkburnett

Data processed at Tue May 21 2019 23:50


All information presented herein is the property of the government of the United States of America and may be revised or deleted at any time without prior notice.
Dissemination of this information without the expressed written consent of the Public Affairs Office, Tulsa District U.S. Army Corps of Engineers is strictly prohibited.
These data are gathered electronically and, as presented, have not undergone any form of quality control. These data are not guaranteed to be valid or correct.
Go to home page.
Go to station list.
Go to home page.

Upstream stations:

Downstream station:
Previous Day
Next Day
Current Day
    
SHEF ID:       BKBT2     Red Rv nr Burkburnett, TX
STATION TYPE:  
Regulating: Stage =     9.00, Flow =    17010

               PRECIP     STAGE  RIV-FLOW  BAT-LOAD
                   in        ft       cfs      volt
              Ccp-Rev   Ccp-Rev   Ccp-Rev   Ccp-Rev
(US/Central)
05/21 00:00      0.00      5.90      3243     12.49
05/21 01:00      0.05      5.95      3382     12.49
05/21 02:00      0.41      5.89      3215     12.49
05/21 03:00      0.37      5.98      3467     12.41
05/21 04:00      0.13      6.01      3555     12.41
05/21 05:00      0.15      6.07      3734     12.41
05/21 06:00      0.13      6.17      4049     12.41
05/21 07:00      0.00      6.28      4417     12.41
05/21 08:00      0.01      6.44      4996     12.41
05/21 09:00      0.00      6.64      5796     12.81
05/21 10:00      0.00      6.85      6736     13.05
05/21 11:00      0.00      7.01      7341     13.68
05/21 12:00      0.00      7.22      8109     13.92
05/21 13:00      0.00      7.49      9181     14.00
05/21 14:00      0.00      7.69     10041     14.00
05/21 15:00      0.00      7.84     10724     13.92
05/21 16:00      0.00      7.98     11392     13.68
05/21 17:00      0.00      8.11     12039     13.60
05/21 18:00      0.00      8.22     12608     13.53
05/21 19:00      0.00      8.25     12767     13.44
05/21 20:00      0.00      8.31     13088     13.05
05/21 21:00      0.00      8.37     13416     12.57
05/21 22:00      0.00      8.43     13735     12.49
05/21 23:00      0.00      8.45     13841     12.49